sensor_id;sensor_type;location;lat;lon;timestamp;pressure;altitude;pressure_sealevel;temperature;humidity
21706;BME280;11014;53.076;18.208;2023-12-07T00:00:28;101722.97;;;3.79;58.95
21706;BME280;11014;53.076;18.208;2023-12-07T00:03:16;101720.47;;;3.78;59.02
21706;BME280;11014;53.076;18.208;2023-12-07T00:05:46;101721.47;;;3.77;58.93
21706;BME280;11014;53.076;18.208;2023-12-07T00:08:14;101724.13;;;3.77;59.16
21706;BME280;11014;53.076;18.208;2023-12-07T00:10:43;101725.78;;;3.78;59.16
21706;BME280;11014;53.076;18.208;2023-12-07T00:13:12;101728.47;;;3.86;59.07
21706;BME280;11014;53.076;18.208;2023-12-07T00:15:41;101725.16;;;3.84;58.84
21706;BME280;11014;53.076;18.208;2023-12-07T00:18:09;101734.94;;;3.83;58.89
21706;BME280;11014;53.076;18.208;2023-12-07T00:20:38;101730.47;;;3.84;58.79
21706;BME280;11014;53.076;18.208;2023-12-07T00:23:07;101727.50;;;3.87;58.86
21706;BME280;11014;53.076;18.208;2023-12-07T00:25:36;101726.50;;;3.88;59.01
21706;BME280;11014;53.076;18.208;2023-12-07T00:28:05;101728.47;;;3.86;58.95
21706;BME280;11014;53.076;18.208;2023-12-07T00:30:34;101730.50;;;3.92;58.88
21706;BME280;11014;53.076;18.208;2023-12-07T00:33:02;101728.16;;;3.89;58.78
21706;BME280;11014;53.076;18.208;2023-12-07T00:35:31;101730.66;;;3.90;58.90
21706;BME280;11014;53.076;18.208;2023-12-07T00:38:00;101733.16;;;3.92;58.92
21706;BME280;11014;53.076;18.208;2023-12-07T00:40:29;101735.16;;;3.90;58.95
21706;BME280;11014;53.076;18.208;2023-12-07T00:42:57;101720.34;;;3.87;58.80
21706;BME280;11014;53.076;18.208;2023-12-07T00:45:27;101734.09;;;3.83;58.71
21706;BME280;11014;53.076;18.208;2023-12-07T00:47:55;101736.63;;;3.84;58.99
21706;BME280;11014;53.076;18.208;2023-12-07T00:50:24;101728.78;;;3.83;58.90
21706;BME280;11014;53.076;18.208;2023-12-07T00:52:52;101731.31;;;3.84;58.96
21706;BME280;11014;53.076;18.208;2023-12-07T00:55:21;101739.09;;;3.86;59.01
21706;BME280;11014;53.076;18.208;2023-12-07T00:57:49;101731.81;;;3.88;59.00
21706;BME280;11014;53.076;18.208;2023-12-07T01:00:18;101740.13;;;3.85;59.08
21706;BME280;11014;53.076;18.208;2023-12-07T01:02:47;101738.25;;;3.85;58.85
21706;BME280;11014;53.076;18.208;2023-12-07T01:05:16;101742.47;;;3.88;58.73
21706;BME280;11014;53.076;18.208;2023-12-07T01:07:44;101744.78;;;3.91;58.91
21706;BME280;11014;53.076;18.208;2023-12-07T01:10:14;101747.94;;;3.94;58.73
21706;BME280;11014;53.076;18.208;2023-12-07T01:12:42;101745.47;;;3.93;58.58
21706;BME280;11014;53.076;18.208;2023-12-07T01:15:11;101745.13;;;3.88;58.76
21706;BME280;11014;53.076;18.208;2023-12-07T01:17:39;101753.41;;;3.85;58.76
21706;BME280;11014;53.076;18.208;2023-12-07T01:20:08;101752.06;;;3.89;59.10
21706;BME280;11014;53.076;18.208;2023-12-07T01:22:41;101766.72;;;3.93;58.69
21706;BME280;11014;53.076;18.208;2023-12-07T01:25:10;101757.44;;;3.97;58.72
21706;BME280;11014;53.076;18.208;2023-12-07T01:27:38;101759.41;;;3.95;58.85
21706;BME280;11014;53.076;18.208;2023-12-07T01:30:07;101752.59;;;3.92;58.90
21706;BME280;11014;53.076;18.208;2023-12-07T01:32:36;101760.06;;;3.89;58.95
21706;BME280;11014;53.076;18.208;2023-12-07T01:35:05;101765.69;;;3.86;58.91
21706;BME280;11014;53.076;18.208;2023-12-07T01:37:34;101760.06;;;3.89;59.12
21706;BME280;11014;53.076;18.208;2023-12-07T01:40:04;101744.72;;;3.83;58.89
21706;BME280;11014;53.076;18.208;2023-12-07T01:42:39;101757.66;;;3.78;59.00
21706;BME280;11014;53.076;18.208;2023-12-07T01:45:08;101747.56;;;3.81;59.23
21706;BME280;11014;53.076;18.208;2023-12-07T01:47:37;101757.03;;;3.84;59.21
21706;BME280;11014;53.076;18.208;2023-12-07T01:50:07;101750.25;;;3.89;59.09
21706;BME280;11014;53.076;18.208;2023-12-07T01:52:38;101752.38;;;3.86;59.00
21706;BME280;11014;53.076;18.208;2023-12-07T01:55:12;101752.88;;;3.81;59.14
21706;BME280;11014;53.076;18.208;2023-12-07T01:57:43;101764.50;;;3.80;59.07
21706;BME280;11014;53.076;18.208;2023-12-07T02:00:13;101759.06;;;3.90;59.09
21706;BME280;11014;53.076;18.208;2023-12-07T02:02:44;101754.09;;;3.95;58.89
21706;BME280;11014;53.076;18.208;2023-12-07T02:05:14;101752.75;;;3.91;58.77
21706;BME280;11014;53.076;18.208;2023-12-07T02:07:43;101763.03;;;3.86;59.05
21706;BME280;11014;53.076;18.208;2023-12-07T02:10:12;101755.56;;;3.89;59.07
21706;BME280;11014;53.076;18.208;2023-12-07T02:12:44;101762.25;;;3.93;58.62
21706;BME280;11014;53.076;18.208;2023-12-07T02:15:14;101755.91;;;3.94;58.65
21706;BME280;11014;53.076;18.208;2023-12-07T02:17:55;101756.78;;;4.03;58.69
21706;BME280;11014;53.076;18.208;2023-12-07T02:23:04;101764.41;;;3.98;58.67
21706;BME280;11014;53.076;18.208;2023-12-07T02:26:02;101764.41;;;3.98;58.67
21706;BME280;11014;53.076;18.208;2023-12-07T02:28:31;101765.38;;;3.89;58.86
21706;BME280;11014;53.076;18.208;2023-12-07T02:30:59;101762.34;;;3.84;58.81
21706;BME280;11014;53.076;18.208;2023-12-07T02:33:28;101766.34;;;3.80;58.96
21706;BME280;11014;53.076;18.208;2023-12-07T02:35:57;101764.34;;;3.82;58.90
21706;BME280;11014;53.076;18.208;2023-12-07T02:38:26;101769.66;;;3.82;58.98
21706;BME280;11014;53.076;18.208;2023-12-07T02:40:57;101767.16;;;3.80;58.62
21706;BME280;11014;53.076;18.208;2023-12-07T02:43:27;101770.28;;;3.76;58.66
21706;BME280;11014;53.076;18.208;2023-12-07T02:45:56;101772.91;;;3.68;58.66
21706;BME280;11014;53.076;18.208;2023-12-07T02:48:25;101764.91;;;3.59;58.78
21706;BME280;11014;53.076;18.208;2023-12-07T02:50:54;101776.13;;;3.53;58.92
21706;BME280;11014;53.076;18.208;2023-12-07T02:53:23;101765.16;;;3.48;58.79
21706;BME280;11014;53.076;18.208;2023-12-07T02:55:51;101758.34;;;3.46;58.79
21706;BME280;11014;53.076;18.208;2023-12-07T02:58:20;101772.59;;;3.45;58.96
21706;BME280;11014;53.076;18.208;2023-12-07T03:00:49;101770.41;;;3.40;58.76
21706;BME280;11014;53.076;18.208;2023-12-07T03:03:17;101775.41;;;3.43;58.94
21706;BME280;11014;53.076;18.208;2023-12-07T03:05:46;101776.56;;;3.41;58.97
21706;BME280;11014;53.076;18.208;2023-12-07T03:08:14;101771.75;;;3.44;59.07
21706;BME280;11014;53.076;18.208;2023-12-07T03:10:43;101774.41;;;3.44;59.10
21706;BME280;11014;53.076;18.208;2023-12-07T03:13:11;101775.41;;;3.43;58.81
21706;BME280;11014;53.076;18.208;2023-12-07T03:15:41;101783.75;;;3.48;58.77
21706;BME280;11014;53.076;18.208;2023-12-07T03:18:09;101781.09;;;3.48;58.69
21706;BME280;11014;53.076;18.208;2023-12-07T03:20:38;101782.91;;;3.48;58.76
21706;BME280;11014;53.076;18.208;2023-12-07T03:23:06;101781.25;;;3.47;58.74
21706;BME280;11014;53.076;18.208;2023-12-07T03:25:35;101779.59;;;3.46;59.09
21706;BME280;11014;53.076;18.208;2023-12-07T03:28:04;101773.44;;;3.45;59.18
21706;BME280;11014;53.076;18.208;2023-12-07T03:30:33;101782.38;;;3.44;59.08
21706;BME280;11014;53.076;18.208;2023-12-07T03:33:01;101780.06;;;3.41;59.07
21706;BME280;11014;53.076;18.208;2023-12-07T03:35:30;101772.09;;;3.41;59.14
21706;BME280;11014;53.076;18.208;2023-12-07T03:37:59;101767.44;;;3.43;59.02
21706;BME280;11014;53.076;18.208;2023-12-07T03:40:27;101763.13;;;3.42;59.41
21706;BME280;11014;53.076;18.208;2023-12-07T03:42:56;101769.56;;;3.40;59.41
21706;BME280;11014;53.076;18.208;2023-12-07T03:45:25;101769.56;;;3.40;59.17
21706;BME280;11014;53.076;18.208;2023-12-07T03:47:53;101771.75;;;3.44;59.41
21706;BME280;11014;53.076;18.208;2023-12-07T03:50:22;101770.63;;;3.47;59.32
21706;BME280;11014;53.076;18.208;2023-12-07T03:52:50;101779.28;;;3.49;59.01
21706;BME280;11014;53.076;18.208;2023-12-07T03:55:19;101784.09;;;3.53;59.02
21706;BME280;11014;53.076;18.208;2023-12-07T03:57:47;101788.75;;;3.51;59.08
21706;BME280;11014;53.076;18.208;2023-12-07T04:00:16;101786.69;;;3.63;59.14
21706;BME280;11014;53.076;18.208;2023-12-07T04:02:45;101788.84;;;3.68;58.90
21706;BME280;11014;53.076;18.208;2023-12-07T04:05:14;101791.34;;;3.69;58.86
21706;BME280;11014;53.076;18.208;2023-12-07T04:07:42;101789.88;;;3.75;58.92
21706;BME280;11014;53.076;18.208;2023-12-07T04:10:11;101787.59;;;3.80;59.00
21706;BME280;11014;53.076;18.208;2023-12-07T04:12:40;101791.09;;;3.88;58.65
21706;BME280;11014;53.076;18.208;2023-12-07T04:15:09;101794.97;;;3.94;58.66
21706;BME280;11014;53.076;18.208;2023-12-07T04:17:37;101796.31;;;3.98;58.78
21706;BME280;11014;53.076;18.208;2023-12-07T04:20:07;101800.66;;;3.99;58.75
21706;BME280;11014;53.076;18.208;2023-12-07T04:22:35;101802.47;;;3.98;58.95
21706;BME280;11014;53.076;18.208;2023-12-07T04:25:05;101804.44;;;3.96;58.82
21706;BME280;11014;53.076;18.208;2023-12-07T04:27:34;101807.09;;;3.96;59.10
21706;BME280;11014;53.076;18.208;2023-12-07T04:30:04;101807.28;;;3.95;59.07
21706;BME280;11014;53.076;18.208;2023-12-07T04:32:33;101808.94;;;3.96;59.01
21706;BME280;11014;53.076;18.208;2023-12-07T04:35:01;101817.94;;;4.03;58.91
21706;BME280;11014;53.076;18.208;2023-12-07T04:37:30;101819.31;;;4.07;58.86
21706;BME280;11014;53.076;18.208;2023-12-07T04:39:58;101820.28;;;4.06;58.85
21706;BME280;11014;53.076;18.208;2023-12-07T04:42:27;101818.47;;;4.06;59.06
21706;BME280;11014;53.076;18.208;2023-12-07T04:44:56;101822.63;;;4.09;58.92
21706;BME280;11014;53.076;18.208;2023-12-07T04:47:24;101820.28;;;4.06;59.13
21706;BME280;11014;53.076;18.208;2023-12-07T04:49:53;101813.28;;;4.05;59.11
21706;BME280;11014;53.076;18.208;2023-12-07T04:52:21;101820.59;;;4.03;59.20
21706;BME280;11014;53.076;18.208;2023-12-07T04:54:50;101815.59;;;4.00;59.33
21706;BME280;11014;53.076;18.208;2023-12-07T04:57:19;101817.59;;;3.98;59.49
21706;BME280;11014;53.076;18.208;2023-12-07T04:59:48;101817.91;;;3.95;59.66
21706;BME280;11014;53.076;18.208;2023-12-07T05:02:17;101825.03;;;3.94;59.77
21706;BME280;11014;53.076;18.208;2023-12-07T05:04:47;101823.22;;;3.95;59.74
21706;BME280;11014;53.076;18.208;2023-12-07T05:07:16;101827.69;;;3.94;59.49
21706;BME280;11014;53.076;18.208;2023-12-07T05:09:45;101820.38;;;3.96;59.95
21706;BME280;11014;53.076;18.208;2023-12-07T05:12:14;101817.59;;;3.98;59.86
21706;BME280;11014;53.076;18.208;2023-12-07T05:14:43;101819.28;;;3.99;59.74
21706;BME280;11014;53.076;18.208;2023-12-07T05:17:11;101824.59;;;3.99;60.16
21706;BME280;11014;53.076;18.208;2023-12-07T05:19:40;101828.56;;;4.03;59.94
21706;BME280;11014;53.076;18.208;2023-12-07T05:22:09;101838.59;;;4.09;59.84
21706;BME280;11014;53.076;18.208;2023-12-07T05:24:38;101829.47;;;4.11;59.92
21706;BME280;11014;53.076;18.208;2023-12-07T05:27:06;101845.59;;;4.18;60.07
21706;BME280;11014;53.076;18.208;2023-12-07T05:29:35;101837.28;;;4.21;59.97
21706;BME280;11014;53.076;18.208;2023-12-07T05:32:06;101831.31;;;4.19;59.91
21706;BME280;11014;53.076;18.208;2023-12-07T05:34:35;101822.66;;;4.17;59.77
21706;BME280;11014;53.076;18.208;2023-12-07T05:37:04;101829.13;;;4.14;59.92
21706;BME280;11014;53.076;18.208;2023-12-07T05:39:33;101820.50;;;4.12;60.03
21706;BME280;11014;53.076;18.208;2023-12-07T05:42:01;101825.47;;;4.15;60.07
21706;BME280;11014;53.076;18.208;2023-12-07T05:44:33;101828.00;;;4.17;60.29
21706;BME280;11014;53.076;18.208;2023-12-07T05:47:01;101830.00;;;4.23;59.98
21706;BME280;11014;53.076;18.208;2023-12-07T05:49:30;101833.69;;;4.30;60.10
21706;BME280;11014;53.076;18.208;2023-12-07T05:51:58;101834.66;;;4.29;59.86
21706;BME280;11014;53.076;18.208;2023-12-07T05:54:27;101840.16;;;4.28;59.95
21706;BME280;11014;53.076;18.208;2023-12-07T05:56:56;101843.00;;;4.26;59.92
21706;BME280;11014;53.076;18.208;2023-12-07T05:59:25;101843.66;;;4.28;60.25
21706;BME280;11014;53.076;18.208;2023-12-07T06:01:54;101841.84;;;4.29;60.26
21706;BME280;11014;53.076;18.208;2023-12-07T06:04:23;101840.34;;;4.26;60.17
21706;BME280;11014;53.076;18.208;2023-12-07T06:06:51;101835.34;;;4.23;60.38
21706;BME280;11014;53.076;18.208;2023-12-07T06:09:20;101835.47;;;4.22;60.48
21706;BME280;11014;53.076;18.208;2023-12-07T06:11:48;101846.13;;;4.22;60.49
21706;BME280;11014;53.076;18.208;2023-12-07T06:14:17;101845.59;;;4.18;60.59
21706;BME280;11014;53.076;18.208;2023-12-07T06:16:46;101850.59;;;4.21;60.62
21706;BME280;11014;53.076;18.208;2023-12-07T06:19:18;101849.97;;;4.27;60.43
21706;BME280;11014;53.076;18.208;2023-12-07T06:21:46;101862.31;;;4.36;60.54
21706;BME280;11014;53.076;18.208;2023-12-07T06:24:15;101857.34;;;4.41;60.35
21706;BME280;11014;53.076;18.208;2023-12-07T06:26:44;101864.34;;;4.42;60.08
21706;BME280;11014;53.076;18.208;2023-12-07T06:29:13;101881.94;;;4.43;60.07
21706;BME280;11014;53.076;18.208;2023-12-07T06:31:45;101872.31;;;4.42;60.31
21706;BME280;11014;53.076;18.208;2023-12-07T06:34:15;101883.94;;;4.41;60.25
21706;BME280;11014;53.076;18.208;2023-12-07T06:36:44;101880.31;;;4.42;60.44
21706;BME280;11014;53.076;18.208;2023-12-07T06:39:14;101885.63;;;4.42;60.13
21706;BME280;11014;53.076;18.208;2023-12-07T06:41:42;101887.28;;;4.43;60.50
21706;BME280;11014;53.076;18.208;2023-12-07T06:44:11;101886.81;;;4.48;60.51
21706;BME280;11014;53.076;18.208;2023-12-07T06:46:40;101884.16;;;4.48;60.28
21706;BME280;11014;53.076;18.208;2023-12-07T06:49:09;101886.31;;;4.52;60.42
21706;BME280;11014;53.076;18.208;2023-12-07T06:51:38;101891.31;;;4.55;60.36
21706;BME280;11014;53.076;18.208;2023-12-07T06:54:07;101882.34;;;4.56;60.17
21706;BME280;11014;53.076;18.208;2023-12-07T06:56:35;101885.00;;;4.56;60.34
21706;BME280;11014;53.076;18.208;2023-12-07T06:59:04;101891.34;;;4.63;60.39
21706;BME280;11014;53.076;18.208;2023-12-07T07:01:33;101891.03;;;4.66;59.96
21706;BME280;11014;53.076;18.208;2023-12-07T07:04:02;101886.38;;;4.68;59.94
21706;BME280;11014;53.076;18.208;2023-12-07T07:06:30;101893.72;;;4.74;60.25
21706;BME280;11014;53.076;18.208;2023-12-07T07:09:00;101896.56;;;4.81;59.93
21706;BME280;11014;53.076;18.208;2023-12-07T07:11:28;101897.41;;;4.82;59.71
21706;BME280;11014;53.076;18.208;2023-12-07T07:13:57;101902.41;;;4.85;60.07
21706;BME280;11014;53.076;18.208;2023-12-07T07:16:25;101901.25;;;4.87;59.69
21706;BME280;11014;53.076;18.208;2023-12-07T07:18:54;101896.44;;;4.91;59.76
21706;BME280;11014;53.076;18.208;2023-12-07T07:21:23;101902.09;;;4.96;59.69
21706;BME280;11014;53.076;18.208;2023-12-07T07:23:52;101902.44;;;5.01;59.74
21706;BME280;11014;53.076;18.208;2023-12-07T07:26:20;101910.78;;;5.06;59.56
21706;BME280;11014;53.076;18.208;2023-12-07T07:28:49;101903.78;;;5.05;59.61
21706;BME280;11014;53.076;18.208;2023-12-07T07:31:18;101906.78;;;5.02;59.69
21706;BME280;11014;53.076;18.208;2023-12-07T07:33:47;101899.44;;;4.96;59.41
21706;BME280;11014;53.076;18.208;2023-12-07T07:36:27;101901.75;;;4.91;59.52
21706;BME280;11014;53.076;18.208;2023-12-07T07:38:56;101900.06;;;4.90;59.72
21706;BME280;11014;53.076;18.208;2023-12-07T07:41:25;101894.94;;;4.96;59.80
21706;BME280;11014;53.076;18.208;2023-12-07T07:43:54;101897.94;;;5.01;59.60
21706;BME280;11014;53.076;18.208;2023-12-07T07:46:24;101900.94;;;4.98;59.94
21706;BME280;11014;53.076;18.208;2023-12-07T07:48:55;101911.75;;;4.97;59.88
21706;BME280;11014;53.076;18.208;2023-12-07T07:51:23;101909.75;;;4.99;59.81
21706;BME280;11014;53.076;18.208;2023-12-07T07:53:52;101915.41;;;4.96;59.71
21706;BME280;11014;53.076;18.208;2023-12-07T07:56:25;101910.41;;;4.93;59.77
21706;BME280;11014;53.076;18.208;2023-12-07T07:58:53;101901.13;;;4.97;59.79
21706;BME280;11014;53.076;18.208;2023-12-07T08:01:22;101903.91;;;4.95;59.86
21706;BME280;11014;53.076;18.208;2023-12-07T08:03:51;101900.59;;;4.93;59.84
21706;BME280;11014;53.076;18.208;2023-12-07T08:06:19;101907.91;;;4.91;59.98
21706;BME280;11014;53.076;18.208;2023-12-07T08:08:48;101911.75;;;4.89;60.11
21706;BME280;11014;53.076;18.208;2023-12-07T08:11:17;101915.72;;;4.93;60.25
21706;BME280;11014;53.076;18.208;2023-12-07T08:13:46;101910.09;;;4.96;60.20
21706;BME280;11014;53.076;18.208;2023-12-07T08:16:16;101917.75;;;4.99;60.01
21706;BME280;11014;53.076;18.208;2023-12-07T08:18:44;101916.94;;;5.06;60.18
21706;BME280;11014;53.076;18.208;2023-12-07T08:21:31;101909.81;;;5.23;59.92
21706;BME280;11014;53.076;18.208;2023-12-07T08:23:59;101903.63;;;5.22;59.58
21706;BME280;11014;53.076;18.208;2023-12-07T08:26:28;101902.84;;;5.30;59.78
21706;BME280;11014;53.076;18.208;2023-12-07T08:28:57;101902.16;;;5.36;59.46
21706;BME280;11014;53.076;18.208;2023-12-07T08:31:26;101907.16;;;5.39;59.49
21706;BME280;11014;53.076;18.208;2023-12-07T08:33:55;101901.84;;;5.39;59.36
21706;BME280;11014;53.076;18.208;2023-12-07T08:36:23;101911.84;;;5.45;59.18
21706;BME280;11014;53.076;18.208;2023-12-07T08:38:53;101918.16;;;5.52;59.10
21706;BME280;11014;53.076;18.208;2023-12-07T08:41:22;101916.00;;;5.56;59.22
21706;BME280;11014;53.076;18.208;2023-12-07T08:43:52;101914.50;;;5.53;59.28
21706;BME280;11014;53.076;18.208;2023-12-07T08:46:20;101911.19;;;5.51;59.24
21706;BME280;11014;53.076;18.208;2023-12-07T08:48:49;101920.34;;;5.57;59.21
21706;BME280;11014;53.076;18.208;2023-12-07T08:51:17;101915.16;;;5.63;59.23
21706;BME280;11014;53.076;18.208;2023-12-07T08:53:46;101920.16;;;5.66;59.00
21706;BME280;11014;53.076;18.208;2023-12-07T08:56:19;101918.84;;;5.70;58.91
21706;BME280;11014;53.076;18.208;2023-12-07T08:58:48;101925.16;;;5.69;58.91
21706;BME280;11014;53.076;18.208;2023-12-07T09:01:17;101932.66;;;5.74;58.96
21706;BME280;11014;53.076;18.208;2023-12-07T09:03:59;101930.66;;;5.84;58.86
21706;BME280;11014;53.076;18.208;2023-12-07T09:06:29;101935.84;;;5.93;58.93
21706;BME280;11014;53.076;18.208;2023-12-07T09:08:58;101938.19;;;5.96;58.81
21706;BME280;11014;53.076;18.208;2023-12-07T09:11:27;101933.50;;;5.98;58.66
21706;BME280;11014;53.076;18.208;2023-12-07T09:13:57;101932.19;;;6.03;58.65
21706;BME280;11014;53.076;18.208;2023-12-07T09:16:25;101935.69;;;6.03;58.46
21706;BME280;11014;53.076;18.208;2023-12-07T09:18:55;101937.19;;;6.06;58.52
21706;BME280;11014;53.076;18.208;2023-12-07T09:21:24;101939.19;;;6.04;58.40
21706;BME280;11014;53.076;18.208;2023-12-07T09:23:53;101944.53;;;6.04;58.37
21706;BME280;11014;53.076;18.208;2023-12-07T09:26:21;101944.16;;;6.07;58.26
21706;BME280;11014;53.076;18.208;2023-12-07T09:28:52;101942.84;;;6.03;58.43
21706;BME280;11014;53.076;18.208;2023-12-07T09:31:22;101949.50;;;6.07;58.37
21706;BME280;11014;53.076;18.208;2023-12-07T09:33:51;101947.84;;;6.14;58.31
21706;BME280;11014;53.076;18.208;2023-12-07T09:36:22;101949.13;;;6.26;58.19
21706;BME280;11014;53.076;18.208;2023-12-07T09:38:52;101946.63;;;6.32;57.95
21706;BME280;11014;53.076;18.208;2023-12-07T09:41:23;101946.81;;;6.31;57.65
21706;BME280;11014;53.076;18.208;2023-12-07T09:43:52;101934.13;;;6.33;57.72
21706;BME280;11014;53.076;18.208;2023-12-07T09:46:21;101934.44;;;6.38;57.72
21706;BME280;11014;53.076;18.208;2023-12-07T09:48:50;101928.75;;;6.41;57.79
21706;BME280;11014;53.076;18.208;2023-12-07T09:51:19;101922.06;;;6.45;57.74
21706;BME280;11014;53.076;18.208;2023-12-07T09:53:51;101920.06;;;6.47;57.63
21706;BME280;11014;53.076;18.208;2023-12-07T09:56:22;101913.25;;;6.44;57.73
21706;BME280;11014;53.076;18.208;2023-12-07T09:58:50;101917.91;;;6.42;57.74
21706;BME280;11014;53.076;18.208;2023-12-07T10:01:19;101920.06;;;6.47;57.88
21706;BME280;11014;53.076;18.208;2023-12-07T10:03:48;101910.69;;;6.51;57.91
21706;BME280;11014;53.076;18.208;2023-12-07T10:06:16;101913.22;;;6.52;57.89
21706;BME280;11014;53.076;18.208;2023-12-07T10:08:45;101920.69;;;6.57;57.98
21706;BME280;11014;53.076;18.208;2023-12-07T10:11:15;101915.50;;;6.64;57.68
21706;BME280;11014;53.076;18.208;2023-12-07T10:13:44;101917.63;;;6.68;57.58
21706;BME280;11014;53.076;18.208;2023-12-07T10:16:14;101917.31;;;6.71;57.61
21706;BME280;11014;53.076;18.208;2023-12-07T10:18:45;101913.25;;;6.75;57.17
21706;BME280;11014;53.076;18.208;2023-12-07T10:21:14;101917.41;;;6.78;57.58
21706;BME280;11014;53.076;18.208;2023-12-07T10:23:43;101914.34;;;6.89;57.13
21706;BME280;11014;53.076;18.208;2023-12-07T10:26:17;101912.81;;;6.94;56.93
21706;BME280;11014;53.076;18.208;2023-12-07T10:28:50;101912.66;;;6.96;56.75
21706;BME280;11014;53.076;18.208;2023-12-07T10:31:23;101910.50;;;6.99;56.65
21706;BME280;11014;53.076;18.208;2023-12-07T10:33:53;101913.47;;;7.04;56.80
21706;BME280;11014;53.076;18.208;2023-12-07T10:36:23;101917.47;;;7.00;56.72
21706;BME280;11014;53.076;18.208;2023-12-07T10:38:53;101919.16;;;7.01;56.88
21706;BME280;11014;53.076;18.208;2023-12-07T10:41:23;101919.94;;;7.10;56.66
21706;BME280;11014;53.076;18.208;2023-12-07T10:43:56;101912.88;;;7.17;56.29
21706;BME280;11014;53.076;18.208;2023-12-07T10:46:27;101914.66;;;7.25;56.15
21706;BME280;11014;53.076;18.208;2023-12-07T10:49:01;101918.28;;;7.32;55.84
21706;BME280;11014;53.076;18.208;2023-12-07T10:51:38;101914.88;;;7.38;55.95
21706;BME280;11014;53.076;18.208;2023-12-07T10:54:10;101904.19;;;7.38;55.80
21706;BME280;11014;53.076;18.208;2023-12-07T10:56:45;101911.84;;;7.41;55.54
21706;BME280;11014;53.076;18.208;2023-12-07T10:59:16;101913.25;;;7.37;55.63
21706;BME280;11014;53.076;18.208;2023-12-07T11:01:57;101910.56;;;7.37;55.48
21706;BME280;11014;53.076;18.208;2023-12-07T11:04:27;101903.38;;;7.37;55.63
21706;BME280;11014;53.076;18.208;2023-12-07T11:07:04;101899.81;;;7.45;55.72
21706;BME280;11014;53.076;18.208;2023-12-07T11:09:41;101910.16;;;7.48;55.57
21706;BME280;11014;53.076;18.208;2023-12-07T11:12:33;101901.09;;;7.49;55.54
21706;BME280;11014;53.076;18.208;2023-12-07T11:15:04;101906.22;;;7.36;55.52
21706;BME280;11014;53.076;18.208;2023-12-07T11:17:55;101909.50;;;7.46;55.65
21706;BME280;11014;53.076;18.208;2023-12-07T11:20:45;101911.50;;;7.44;55.52
21706;BME280;11014;53.076;18.208;2023-12-07T11:23:18;101908.59;;;7.31;55.33
21706;BME280;11014;53.076;18.208;2023-12-07T11:25:49;101906.56;;;7.33;55.59
21706;BME280;11014;53.076;18.208;2023-12-07T11:28:34;101902.56;;;7.37;55.56
21706;BME280;11014;53.076;18.208;2023-12-07T11:31:03;101906.41;;;7.34;55.76
21706;BME280;11014;53.076;18.208;2023-12-07T11:33:32;101909.94;;;7.35;55.70
21706;BME280;11014;53.076;18.208;2023-12-07T11:36:08;101901.34;;;7.39;55.37
21706;BME280;11014;53.076;18.208;2023-12-07T11:38:38;101897.31;;;7.43;55.42
21706;BME280;11014;53.076;18.208;2023-12-07T11:41:07;101898.97;;;7.44;55.09
21706;BME280;11014;53.076;18.208;2023-12-07T11:43:40;101887.81;;;7.41;55.30
21706;BME280;11014;53.076;18.208;2023-12-07T11:46:12;101894.47;;;7.45;55.42
21706;BME280;11014;53.076;18.208;2023-12-07T11:48:46;101883.41;;;7.48;55.52
21706;BME280;11014;53.076;18.208;2023-12-07T11:51:16;101894.13;;;7.48;55.37
21706;BME280;11014;53.076;18.208;2023-12-07T11:53:46;101892.09;;;7.50;55.20
21706;BME280;11014;53.076;18.208;2023-12-07T11:56:17;101882.50;;;7.55;55.44
21706;BME280;11014;53.076;18.208;2023-12-07T11:58:50;101892.66;;;7.60;54.98
21706;BME280;11014;53.076;18.208;2023-12-07T12:05:14;101884.88;;;7.73;54.63
21706;BME280;11014;53.076;18.208;2023-12-07T12:07:43;101880.88;;;7.69;55.06
21706;BME280;11014;53.076;18.208;2023-12-07T12:10:11;101882.56;;;7.70;54.76
21706;BME280;11014;53.076;18.208;2023-12-07T12:12:41;101876.47;;;7.76;55.09
21706;BME280;11014;53.076;18.208;2023-12-07T12:15:10;101876.94;;;7.80;54.59
21706;BME280;11014;53.076;18.208;2023-12-07T12:17:38;101886.44;;;7.82;54.54
21706;BME280;11014;53.076;18.208;2023-12-07T12:20:08;101877.41;;;7.83;54.62
21706;BME280;11014;53.076;18.208;2023-12-07T12:22:38;101876.69;;;7.89;54.54
21706;BME280;11014;53.076;18.208;2023-12-07T12:25:08;101882.03;;;7.89;54.21
21706;BME280;11014;53.076;18.208;2023-12-07T12:27:36;101873.81;;;7.91;54.31
21706;BME280;11014;53.076;18.208;2023-12-07T12:30:06;101877.06;;;7.86;54.35
21706;BME280;11014;53.076;18.208;2023-12-07T12:32:45;101875.84;;;7.89;54.24
21706;BME280;11014;53.076;18.208;2023-12-07T12:35:14;101871.88;;;7.85;54.20
21706;BME280;11014;53.076;18.208;2023-12-07T12:37:45;101873.63;;;7.78;54.35
21706;BME280;11014;53.076;18.208;2023-12-07T12:40:18;101869.00;;;7.71;54.71
21706;BME280;11014;53.076;18.208;2023-12-07T12:42:49;101861.69;;;7.65;54.80
21706;BME280;11014;53.076;18.208;2023-12-07T12:45:21;101866.50;;;7.70;54.82
21706;BME280;11014;53.076;18.208;2023-12-07T12:47:50;101869.47;;;7.75;54.54
21706;BME280;11014;53.076;18.208;2023-12-07T12:50:39;101864.03;;;7.83;54.45
21706;BME280;11014;53.076;18.208;2023-12-07T12:53:10;101866.78;;;7.75;54.46
21706;BME280;11014;53.076;18.208;2023-12-07T12:55:40;101870.13;;;7.77;54.77
21706;BME280;11014;53.076;18.208;2023-12-07T12:58:10;101864.59;;;7.79;54.36
21706;BME280;11014;53.076;18.208;2023-12-07T13:00:39;101873.63;;;7.78;54.33
21706;BME280;11014;53.076;18.208;2023-12-07T13:03:09;101873.50;;;7.71;54.60
21706;BME280;11014;53.076;18.208;2023-12-07T13:05:39;101875.19;;;7.72;54.40
21706;BME280;11014;53.076;18.208;2023-12-07T13:08:07;101869.47;;;7.75;54.65
21706;BME280;11014;53.076;18.208;2023-12-07T13:10:42;101876.09;;;7.79;54.44